sensor_id;sensor_type;location;lat;lon;timestamp;P1;durP1;ratioP1;P2;durP2;ratioP2
23768;SDS011;12064;50.890;5.424;2023-07-02T00:07:03;1.52;;;1.27;;
23768;SDS011;12064;50.890;5.424;2023-07-02T00:15:54;1.20;;;1.10;;
23768;SDS011;12064;50.890;5.424;2023-07-02T00:24:45;1.33;;;1.20;;
23768;SDS011;12064;50.890;5.424;2023-07-02T00:33:36;1.30;;;1.20;;
23768;SDS011;12064;50.890;5.424;2023-07-02T00:42:26;1.48;;;1.20;;
23768;SDS011;12064;50.890;5.424;2023-07-02T00:51:23;1.40;;;1.25;;
23768;SDS011;12064;50.890;5.424;2023-07-02T01:00:15;1.40;;;1.30;;
23768;SDS011;12064;50.890;5.424;2023-07-02T01:09:06;1.45;;;1.30;;
23768;SDS011;12064;50.890;5.424;2023-07-02T01:17:57;1.45;;;1.35;;
23768;SDS011;12064;50.890;5.424;2023-07-02T01:26:48;1.67;;;1.48;;
23768;SDS011;12064;50.890;5.424;2023-07-02T01:35:39;1.52;;;1.42;;
23768;SDS011;12064;50.890;5.424;2023-07-02T01:44:29;1.80;;;1.50;;
23768;SDS011;12064;50.890;5.424;2023-07-02T01:53:20;1.57;;;1.47;;
23768;SDS011;12064;50.890;5.424;2023-07-02T02:02:11;2.10;;;1.40;;
23768;SDS011;12064;50.890;5.424;2023-07-02T02:11:01;1.97;;;1.47;;
23768;SDS011;12064;50.890;5.424;2023-07-02T02:19:52;2.87;;;1.63;;
23768;SDS011;12064;50.890;5.424;2023-07-02T02:28:43;1.67;;;1.52;;
23768;SDS011;12064;50.890;5.424;2023-07-02T02:37:38;2.15;;;1.70;;
23768;SDS011;12064;50.890;5.424;2023-07-02T02:46:30;1.70;;;1.60;;
23768;SDS011;12064;50.890;5.424;2023-07-02T02:55:21;2.72;;;1.60;;
23768;SDS011;12064;50.890;5.424;2023-07-02T03:04:12;2.15;;;1.75;;
23768;SDS011;12064;50.890;5.424;2023-07-02T03:13:03;2.40;;;2.00;;
23768;SDS011;12064;50.890;5.424;2023-07-02T03:21:54;1.90;;;1.65;;
23768;SDS011;12064;50.890;5.424;2023-07-02T03:30:45;2.30;;;1.90;;
23768;SDS011;12064;50.890;5.424;2023-07-02T03:39:35;2.07;;;1.70;;
23768;SDS011;12064;50.890;5.424;2023-07-02T03:48:26;2.60;;;1.92;;
23768;SDS011;12064;50.890;5.424;2023-07-02T03:57:17;2.45;;;2.10;;
23768;SDS011;12064;50.890;5.424;2023-07-02T04:06:08;2.47;;;2.17;;
23768;SDS011;12064;50.890;5.424;2023-07-02T04:14:58;2.33;;;2.10;;
23768;SDS011;12064;50.890;5.424;2023-07-02T04:23:49;3.20;;;2.60;;
23768;SDS011;12064;50.890;5.424;2023-07-02T04:32:40;2.72;;;2.10;;
23768;SDS011;12064;50.890;5.424;2023-07-02T04:41:31;2.63;;;2.42;;
23768;SDS011;12064;50.890;5.424;2023-07-02T04:50:22;2.83;;;2.45;;
23768;SDS011;12064;50.890;5.424;2023-07-02T04:59:13;2.88;;;2.50;;
23768;SDS011;12064;50.890;5.424;2023-07-02T05:08:05;2.72;;;2.47;;
23768;SDS011;12064;50.890;5.424;2023-07-02T05:16:55;2.72;;;2.50;;
23768;SDS011;12064;50.890;5.424;2023-07-02T05:25:46;3.88;;;2.70;;
23768;SDS011;12064;50.890;5.424;2023-07-02T05:34:37;2.97;;;2.67;;
23768;SDS011;12064;50.890;5.424;2023-07-02T05:43:29;8.07;;;4.32;;
23768;SDS011;12064;50.890;5.424;2023-07-02T05:52:19;20.13;;;12.45;;
23768;SDS011;12064;50.890;5.424;2023-07-02T06:01:11;25.67;;;15.48;;
23768;SDS011;12064;50.890;5.424;2023-07-02T06:10:02;28.88;;;17.25;;
23768;SDS011;12064;50.890;5.424;2023-07-02T06:18:52;30.30;;;17.92;;
23768;SDS011;12064;50.890;5.424;2023-07-02T06:27:46;37.23;;;22.23;;
23768;SDS011;12064;50.890;5.424;2023-07-02T06:36:37;37.78;;;23.25;;
23768;SDS011;12064;50.890;5.424;2023-07-02T06:45:27;42.77;;;24.37;;
23768;SDS011;12064;50.890;5.424;2023-07-02T06:54:18;45.50;;;24.10;;
23768;SDS011;12064;50.890;5.424;2023-07-02T07:03:09;40.38;;;24.80;;
23768;SDS011;12064;50.890;5.424;2023-07-02T07:12:00;39.05;;;24.35;;
23768;SDS011;12064;50.890;5.424;2023-07-02T07:20:50;38.40;;;24.10;;
23768;SDS011;12064;50.890;5.424;2023-07-02T07:29:42;42.35;;;24.40;;
23768;SDS011;12064;50.890;5.424;2023-07-02T07:38:33;41.17;;;23.13;;
23768;SDS011;12064;50.890;5.424;2023-07-02T07:47:24;41.55;;;22.23;;
23768;SDS011;12064;50.890;5.424;2023-07-02T07:56:14;39.60;;;23.23;;
23768;SDS011;12064;50.890;5.424;2023-07-02T08:05:05;38.83;;;21.98;;
23768;SDS011;12064;50.890;5.424;2023-07-02T08:13:56;37.10;;;21.98;;
23768;SDS011;12064;50.890;5.424;2023-07-02T08:22:47;36.05;;;22.20;;
23768;SDS011;12064;50.890;5.424;2023-07-02T08:31:38;31.13;;;19.90;;
23768;SDS011;12064;50.890;5.424;2023-07-02T08:40:28;32.88;;;21.13;;
23768;SDS011;12064;50.890;5.424;2023-07-02T08:49:19;33.55;;;20.10;;
23768;SDS011;12064;50.890;5.424;2023-07-02T08:58:10;29.60;;;17.97;;
23768;SDS011;12064;50.890;5.424;2023-07-02T09:07:07;28.67;;;18.58;;
23768;SDS011;12064;50.890;5.424;2023-07-02T09:15:59;28.60;;;17.80;;
23768;SDS011;12064;50.890;5.424;2023-07-02T09:24:53;26.80;;;16.23;;
23768;SDS011;12064;50.890;5.424;2023-07-02T09:33:47;26.13;;;15.77;;
23768;SDS011;12064;50.890;5.424;2023-07-02T09:42:39;23.33;;;14.07;;
23768;SDS011;12064;50.890;5.424;2023-07-02T09:51:32;20.65;;;13.70;;
23768;SDS011;12064;50.890;5.424;2023-07-02T10:00:23;20.92;;;12.70;;
23768;SDS011;12064;50.890;5.424;2023-07-02T10:09:15;18.83;;;11.77;;
23768;SDS011;12064;50.890;5.424;2023-07-02T10:18:07;17.83;;;10.80;;
23768;SDS011;12064;50.890;5.424;2023-07-02T10:26:58;18.08;;;11.38;;
23768;SDS011;12064;50.890;5.424;2023-07-02T10:35:50;20.73;;;11.23;;
23768;SDS011;12064;50.890;5.424;2023-07-02T10:44:51;19.98;;;11.75;;
23768;SDS011;12064;50.890;5.424;2023-07-02T10:53:42;17.67;;;11.55;;
23768;SDS011;12064;50.890;5.424;2023-07-02T11:02:39;18.52;;;11.52;;
23768;SDS011;12064;50.890;5.424;2023-07-02T11:11:30;16.92;;;10.88;;
23768;SDS011;12064;50.890;5.424;2023-07-02T11:20:21;21.20;;;12.23;;
23768;SDS011;12064;50.890;5.424;2023-07-02T11:29:18;18.80;;;12.63;;
23768;SDS011;12064;50.890;5.424;2023-07-02T11:38:09;18.23;;;11.90;;
23768;SDS011;12064;50.890;5.424;2023-07-02T11:47:00;19.10;;;11.70;;
23768;SDS011;12064;50.890;5.424;2023-07-02T11:55:51;19.57;;;12.47;;
23768;SDS011;12064;50.890;5.424;2023-07-02T12:04:42;20.17;;;12.20;;
23768;SDS011;12064;50.890;5.424;2023-07-02T12:13:32;19.27;;;11.68;;
23768;SDS011;12064;50.890;5.424;2023-07-02T12:22:23;17.60;;;11.43;;
23768;SDS011;12064;50.890;5.424;2023-07-02T12:31:14;17.40;;;11.38;;
23768;SDS011;12064;50.890;5.424;2023-07-02T12:40:05;19.10;;;11.93;;
23768;SDS011;12064;50.890;5.424;2023-07-02T12:48:56;19.63;;;11.73;;
23768;SDS011;12064;50.890;5.424;2023-07-02T12:57:47;19.98;;;11.57;;
23768;SDS011;12064;50.890;5.424;2023-07-02T13:06:37;19.50;;;11.17;;
23768;SDS011;12064;50.890;5.424;2023-07-02T13:15:31;17.23;;;10.55;;
23768;SDS011;12064;50.890;5.424;2023-07-02T13:24:22;19.98;;;11.85;;
23768;SDS011;12064;50.890;5.424;2023-07-02T13:33:13;19.33;;;11.07;;
23768;SDS011;12064;50.890;5.424;2023-07-02T13:42:03;17.20;;;10.77;;
23768;SDS011;12064;50.890;5.424;2023-07-02T13:50:55;18.95;;;10.85;;
23768;SDS011;12064;50.890;5.424;2023-07-02T13:59:47;18.23;;;10.48;;
23768;SDS011;12064;50.890;5.424;2023-07-02T14:08:38;17.83;;;10.65;;
23768;SDS011;12064;50.890;5.424;2023-07-02T14:17:29;17.87;;;10.67;;
23768;SDS011;12064;50.890;5.424;2023-07-02T14:26:19;18.33;;;10.57;;
23768;SDS011;12064;50.890;5.424;2023-07-02T14:35:10;19.50;;;10.37;;
23768;SDS011;12064;50.890;5.424;2023-07-02T14:44:01;19.63;;;10.97;;
23768;SDS011;12064;50.890;5.424;2023-07-02T14:52:53;18.70;;;10.95;;
23768;SDS011;12064;50.890;5.424;2023-07-02T15:01:43;17.70;;;10.38;;
23768;SDS011;12064;50.890;5.424;2023-07-02T15:10:35;17.33;;;10.52;;
23768;SDS011;12064;50.890;5.424;2023-07-02T15:19:27;19.95;;;10.85;;
23768;SDS011;12064;50.890;5.424;2023-07-02T15:28:18;17.40;;;10.03;;
23768;SDS011;12064;50.890;5.424;2023-07-02T15:37:10;17.92;;;10.50;;
23768;SDS011;12064;50.890;5.424;2023-07-02T15:46:01;18.50;;;10.15;;
23768;SDS011;12064;50.890;5.424;2023-07-02T15:54:52;17.20;;;10.40;;
23768;SDS011;12064;50.890;5.424;2023-07-02T16:03:43;14.52;;;9.70;;
23768;SDS011;12064;50.890;5.424;2023-07-02T16:12:33;16.73;;;10.18;;
23768;SDS011;12064;50.890;5.424;2023-07-02T16:21:25;16.33;;;9.75;;
23768;SDS011;12064;50.890;5.424;2023-07-02T16:30:16;18.20;;;10.23;;
23768;SDS011;12064;50.890;5.424;2023-07-02T16:39:08;20.00;;;10.18;;
23768;SDS011;12064;50.890;5.424;2023-07-02T16:47:59;17.23;;;9.77;;
23768;SDS011;12064;50.890;5.424;2023-07-02T16:56:56;16.20;;;10.00;;
23768;SDS011;12064;50.890;5.424;2023-07-02T17:05:48;17.23;;;9.93;;
23768;SDS011;12064;50.890;5.424;2023-07-02T17:14:39;17.33;;;10.03;;
23768;SDS011;12064;50.890;5.424;2023-07-02T17:23:34;19.50;;;9.00;;
23768;SDS011;12064;50.890;5.424;2023-07-02T17:32:25;17.23;;;9.18;;
23768;SDS011;12064;50.890;5.424;2023-07-02T17:41:18;16.08;;;9.25;;
23768;SDS011;12064;50.890;5.424;2023-07-02T17:50:09;16.20;;;8.85;;
23768;SDS011;12064;50.890;5.424;2023-07-02T17:59:00;16.27;;;8.95;;
23768;SDS011;12064;50.890;5.424;2023-07-02T18:07:51;14.15;;;7.75;;
23768;SDS011;12064;50.890;5.424;2023-07-02T18:16:42;15.00;;;8.10;;
23768;SDS011;12064;50.890;5.424;2023-07-02T18:25:33;15.88;;;8.20;;
23768;SDS011;12064;50.890;5.424;2023-07-02T18:34:23;13.65;;;6.93;;
23768;SDS011;12064;50.890;5.424;2023-07-02T18:43:14;12.27;;;7.10;;
23768;SDS011;12064;50.890;5.424;2023-07-02T18:52:12;12.70;;;6.77;;
23768;SDS011;12064;50.890;5.424;2023-07-02T19:01:05;12.27;;;6.53;;
23768;SDS011;12064;50.890;5.424;2023-07-02T19:09:57;14.02;;;6.15;;
23768;SDS011;12064;50.890;5.424;2023-07-02T19:18:48;14.18;;;5.95;;
23768;SDS011;12064;50.890;5.424;2023-07-02T19:27:39;14.38;;;6.13;;
23768;SDS011;12064;50.890;5.424;2023-07-02T19:36:30;14.25;;;5.90;;
23768;SDS011;12064;50.890;5.424;2023-07-02T19:45:21;14.70;;;5.70;;
23768;SDS011;12064;50.890;5.424;2023-07-02T19:54:15;15.03;;;5.10;;
23768;SDS011;12064;50.890;5.424;2023-07-02T20:03:07;11.52;;;4.88;;
23768;SDS011;12064;50.890;5.424;2023-07-02T20:11:58;10.68;;;4.18;;
23768;SDS011;12064;50.890;5.424;2023-07-02T20:20:49;13.13;;;4.32;;
23768;SDS011;12064;50.890;5.424;2023-07-02T20:29:42;10.32;;;3.92;;
23768;SDS011;12064;50.890;5.424;2023-07-02T20:38:33;13.00;;;4.67;;
23768;SDS011;12064;50.890;5.424;2023-07-02T20:47:23;7.93;;;3.58;;
23768;SDS011;12064;50.890;5.424;2023-07-02T20:56:14;8.90;;;4.07;;
23768;SDS011;12064;50.890;5.424;2023-07-02T21:05:06;8.68;;;3.95;;
23768;SDS011;12064;50.890;5.424;2023-07-02T21:13:57;8.23;;;3.90;;
23768;SDS011;12064;50.890;5.424;2023-07-02T21:22:48;7.65;;;3.40;;
23768;SDS011;12064;50.890;5.424;2023-07-02T21:31:39;8.07;;;3.67;;
23768;SDS011;12064;50.890;5.424;2023-07-02T21:40:31;6.60;;;3.47;;
23768;SDS011;12064;50.890;5.424;2023-07-02T21:49:21;7.90;;;3.63;;
23768;SDS011;12064;50.890;5.424;2023-07-02T21:58:12;8.75;;;3.70;;
23768;SDS011;12064;50.890;5.424;2023-07-02T22:07:04;9.93;;;3.70;;
23768;SDS011;12064;50.890;5.424;2023-07-02T22:15:55;6.63;;;3.60;;
23768;SDS011;12064;50.890;5.424;2023-07-02T22:24:45;6.93;;;3.30;;
23768;SDS011;12064;50.890;5.424;2023-07-02T22:33:38;7.70;;;3.80;;
23768;SDS011;12064;50.890;5.424;2023-07-02T22:42:28;7.50;;;3.60;;
23768;SDS011;12064;50.890;5.424;2023-07-02T22:51:19;6.77;;;3.47;;
23768;SDS011;12064;50.890;5.424;2023-07-02T23:00:11;6.93;;;3.30;;
23768;SDS011;12064;50.890;5.424;2023-07-02T23:09:04;7.40;;;3.42;;
23768;SDS011;12064;50.890;5.424;2023-07-02T23:17:58;4.78;;;2.95;;
23768;SDS011;12064;50.890;5.424;2023-07-02T23:26:50;6.50;;;3.20;;
23768;SDS011;12064;50.890;5.424;2023-07-02T23:35:44;5.47;;;3.28;;
23768;SDS011;12064;50.890;5.424;2023-07-02T23:44:35;4.18;;;3.00;;
23768;SDS011;12064;50.890;5.424;2023-07-02T23:53:26;5.13;;;3.00;;
